createdAt,value
2023-02-13T00:01:53.729Z,69.30
2023-02-13T00:04:57.038Z,69.00
2023-02-13T00:08:00.318Z,71.10
2023-02-13T00:11:03.677Z,79.00
2023-02-13T00:14:07.406Z,76.80
2023-02-13T00:17:10.839Z,79.60
2023-02-13T00:20:14.533Z,81.40
2023-02-13T00:23:17.858Z,76.90
2023-02-13T00:26:21.192Z,78.70
2023-02-13T00:29:25.040Z,77.00
2023-02-13T00:32:28.330Z,79.30
2023-02-13T00:35:31.727Z,76.50
2023-02-13T00:38:35.959Z,81.00
2023-02-13T00:41:39.925Z,80.80
2023-02-13T00:44:44.874Z,78.30
2023-02-13T00:47:48.469Z,78.00
2023-02-13T00:50:52.614Z,88.20
2023-02-13T00:53:56.039Z,89.20
2023-02-13T00:56:59.455Z,81.00
2023-02-13T01:00:03.487Z,82.30
2023-02-13T01:03:07.700Z,83.40
2023-02-13T01:06:11.135Z,84.10
2023-02-13T01:09:14.492Z,82.20
2023-02-13T01:12:17.794Z,86.50
2023-02-13T01:15:21.444Z,88.20
2023-02-13T01:18:25.046Z,96.50
2023-02-13T01:21:28.346Z,97.80
2023-02-13T01:24:33.332Z,93.40
2023-02-13T01:27:38.275Z,91.70
2023-02-13T01:30:41.646Z,95.90
2023-02-13T01:33:45.297Z,91.00
2023-02-13T01:36:49.299Z,91.90
2023-02-13T01:39:54.657Z,88.80
2023-02-13T01:42:57.946Z,84.10
2023-02-13T01:46:02.253Z,91.30
2023-02-13T01:49:20.898Z,94.60
2023-02-13T01:52:24.397Z,92.80
2023-02-13T01:55:29.753Z,88.30
2023-02-13T01:58:35.989Z,96.60
2023-02-13T02:01:40.100Z,93.60
2023-02-13T02:04:45.795Z,91.70
2023-02-13T02:07:54.827Z,91.70
2023-02-13T02:11:08.209Z,88.50
2023-02-13T02:14:11.555Z,88.40
2023-02-13T02:17:15.374Z,87.40
2023-02-13T02:20:40.506Z,92.70
2023-02-13T02:24:06.801Z,91.20
2023-02-13T02:27:28.041Z,89.40
2023-02-13T02:31:04.045Z,89.90
2023-02-13T02:34:33.196Z,82.20
2023-02-13T02:38:10.725Z,85.20
2023-02-13T02:41:39.295Z,85.40
2023-02-13T02:44:52.185Z,85.10
2023-02-13T02:48:59.896Z,81.20
2023-02-13T02:52:18.367Z,78.00
2023-02-13T02:55:24.398Z,81.00
2023-02-13T02:58:54.840Z,81.50
2023-02-13T03:02:19.254Z,75.70
2023-02-13T03:05:46.754Z,78.40
2023-02-13T03:09:37.872Z,83.20
2023-02-13T03:13:21.985Z,82.40
2023-02-13T03:16:44.782Z,74.80
2023-02-13T03:20:25.097Z,71.60
2023-02-13T03:23:34.124Z,73.50
2023-02-13T03:26:56.055Z,77.80
2023-02-13T03:30:11.859Z,69.00
2023-02-13T03:33:36.506Z,72.50
2023-02-13T03:37:13.782Z,72.00
2023-02-13T03:41:00.331Z,71.50
2023-02-13T03:44:13.872Z,66.40
2023-02-13T03:47:17.330Z,76.60
2023-02-13T03:50:21.701Z,67.40
2023-02-13T03:53:28.849Z,70.50
2023-02-13T03:56:53.708Z,67.90
2023-02-13T03:59:58.692Z,60.50
2023-02-13T04:03:34.312Z,64.30
2023-02-13T04:07:04.093Z,66.90
2023-02-13T04:10:12.878Z,64.40
2023-02-13T04:13:27.342Z,67.70
2023-02-13T04:16:36.779Z,63.50
2023-02-13T04:19:40.846Z,64.80
2023-02-13T04:22:46.844Z,60.30
2023-02-13T04:25:53.676Z,60.40
2023-02-13T04:28:57.006Z,54.30
2023-02-13T04:32:00.426Z,57.20
2023-02-13T04:35:04.068Z,53.40
2023-02-13T04:38:07.517Z,51.60
2023-02-13T04:41:10.841Z,54.30
2023-02-13T04:44:14.101Z,55.40
2023-02-13T04:47:17.636Z,52.70
2023-02-13T04:50:21.466Z,56.20
2023-02-13T04:53:24.637Z,54.70
2023-02-13T04:56:27.838Z,55.50
2023-02-13T04:59:31.005Z,55.10
2023-02-13T05:02:34.371Z,53.50
2023-02-13T05:05:38.655Z,49.80
2023-02-13T05:08:41.806Z,53.30
2023-02-13T05:11:45.055Z,54.40
2023-02-13T05:14:48.275Z,53.30
2023-02-13T05:17:51.700Z,53.40
2023-02-13T05:21:14.207Z,60.80
2023-02-13T05:27:23.729Z,52.60
2023-02-13T05:30:27.435Z,60.00
2023-02-13T05:33:30.603Z,57.10
2023-02-13T05:36:33.983Z,63.40
2023-02-13T05:39:37.267Z,61.10
2023-02-13T05:42:41.380Z,57.80
2023-02-13T05:45:44.576Z,57.90
2023-02-13T05:48:47.759Z,58.30
2023-02-13T05:51:52.437Z,61.30
2023-02-13T05:54:55.690Z,60.00
2023-02-13T05:57:58.954Z,63.80
2023-02-13T06:01:02.302Z,64.60
2023-02-13T06:04:05.748Z,62.60
2023-02-13T06:07:08.990Z,61.80
2023-02-13T06:10:12.296Z,58.60
2023-02-13T06:13:16.776Z,61.60
2023-02-13T06:16:20.063Z,57.70
2023-02-13T06:19:23.573Z,57.50
2023-02-13T06:22:26.849Z,52.10
2023-02-13T06:25:30.026Z,50.20
2023-02-13T06:28:33.847Z,49.40
2023-02-13T06:31:37.408Z,50.80
2023-02-13T06:34:40.637Z,45.00
2023-02-13T06:37:44.093Z,56.60
2023-02-13T06:40:48.318Z,47.70
2023-02-13T06:43:51.500Z,41.90
2023-02-13T06:46:54.769Z,43.70
2023-02-13T06:49:58.019Z,44.10
2023-02-13T06:53:01.634Z,51.30
2023-02-13T06:56:08.622Z,47.40
2023-02-13T06:59:11.929Z,47.50
2023-02-13T07:02:15.130Z,56.00
2023-02-13T07:05:18.395Z,51.80
2023-02-13T07:08:21.657Z,46.60
2023-02-13T07:11:26.161Z,43.80
2023-02-13T07:14:29.529Z,45.50
2023-02-13T07:17:34.127Z,46.60
2023-02-13T07:20:37.509Z,51.90
2023-02-13T07:23:40.867Z,47.80
2023-02-13T07:26:44.829Z,49.80
2023-02-13T07:29:48.058Z,46.30
2023-02-13T07:32:52.142Z,47.00
2023-02-13T07:35:55.396Z,44.70
2023-02-13T07:38:58.700Z,41.80
2023-02-13T07:58:09.304Z,50.70
2023-02-13T08:01:17.485Z,46.20
2023-02-13T08:04:21.104Z,45.00
2023-02-13T08:07:24.412Z,45.30
2023-02-13T08:10:46.621Z,43.60
2023-02-13T08:13:49.993Z,49.60
2023-02-13T08:16:54.552Z,52.50
2023-02-13T08:19:58.204Z,62.50
2023-02-13T08:23:07.254Z,59.90
2023-02-13T08:26:11.204Z,48.10
2023-02-13T08:29:14.750Z,40.50
2023-02-13T08:32:18.513Z,41.90
2023-02-13T08:35:22.976Z,41.20
2023-02-13T08:38:26.417Z,45.30
2023-02-13T08:41:29.747Z,42.70
2023-02-13T08:44:33.132Z,44.20
2023-02-13T08:47:36.316Z,42.70
2023-02-13T08:50:39.521Z,39.10
2023-02-13T08:53:43.096Z,47.10
2023-02-13T08:56:46.346Z,44.90
2023-02-13T08:59:49.670Z,48.70
2023-02-13T09:02:52.940Z,54.60
2023-02-13T09:06:00.594Z,54.40
2023-02-13T09:09:06.895Z,55.00
2023-02-13T09:12:10.106Z,51.10
2023-02-13T09:15:13.385Z,62.60
2023-02-13T09:18:16.640Z,67.40
2023-02-13T09:21:23.705Z,53.40
2023-02-13T09:24:27.030Z,49.80
2023-02-13T09:27:30.725Z,46.20
2023-02-13T09:30:34.035Z,41.30
2023-02-13T09:33:37.536Z,47.30
2023-02-13T09:36:40.775Z,40.50
2023-02-13T09:39:43.989Z,42.00
2023-02-13T09:42:48.612Z,45.90
2023-02-13T09:45:53.470Z,51.90
2023-02-13T09:49:00.990Z,48.10
2023-02-13T09:52:04.530Z,36.50
2023-02-13T09:55:24.109Z,35.20
2023-02-13T09:58:41.900Z,32.90
2023-02-13T10:01:49.139Z,36.30
2023-02-13T10:05:10.683Z,31.80
2023-02-13T10:08:34.015Z,27.20
2023-02-13T10:11:55.974Z,27.90
2023-02-13T10:15:12.298Z,29.00
2023-02-13T10:18:23.606Z,36.30
2023-02-13T10:21:34.438Z,32.80
2023-02-13T10:24:47.667Z,32.70
2023-02-13T10:28:06.723Z,31.70
2023-02-13T10:31:19.753Z,33.80
2023-02-13T10:34:27.293Z,35.50
2023-02-13T10:37:30.740Z,34.10
2023-02-13T10:40:40.636Z,30.30
2023-02-13T10:44:10.947Z,32.50
2023-02-13T10:47:19.956Z,30.60
2023-02-13T10:50:31.038Z,34.10
2023-02-13T10:53:43.164Z,39.00
2023-02-13T10:57:21.498Z,36.50
2023-02-13T11:00:41.319Z,36.70
2023-02-13T11:03:47.960Z,36.90
2023-02-13T11:07:03.392Z,44.10
2023-02-13T11:10:17.486Z,50.80
2023-02-13T11:13:25.189Z,52.50
2023-02-13T11:16:28.579Z,49.70
2023-02-13T11:19:46.584Z,48.50
2023-02-13T11:22:49.859Z,54.20
2023-02-13T11:26:00.401Z,50.10
2023-02-13T11:29:18.739Z,49.90
2023-02-13T11:32:24.662Z,48.00
2023-02-13T11:35:31.405Z,42.80
2023-02-13T11:38:34.991Z,40.10
2023-02-13T11:41:43.918Z,45.70
2023-02-13T11:44:53.501Z,41.00
2023-02-13T11:47:56.984Z,47.50
2023-02-13T11:51:00.683Z,40.40
2023-02-13T11:54:05.193Z,41.50
2023-02-13T11:57:20.906Z,38.80
2023-02-13T12:00:40.302Z,36.00
2023-02-13T12:03:43.876Z,34.90
2023-02-13T12:07:02.090Z,37.60
2023-02-13T12:10:25.130Z,38.20
2023-02-13T12:13:35.665Z,35.10
2023-02-13T12:16:44.374Z,38.90
2023-02-13T12:19:50.159Z,39.20
2023-02-13T12:23:11.649Z,37.70
2023-02-13T12:26:56.451Z,40.90
2023-02-13T12:30:33.513Z,39.70
2023-02-13T12:34:29.138Z,41.90
2023-02-13T12:37:42.381Z,31.10
2023-02-13T12:41:16.342Z,32.60
2023-02-13T12:44:22.291Z,32.30
2023-02-13T12:47:31.708Z,33.50
2023-02-13T12:50:42.740Z,36.60
2023-02-13T12:54:05.406Z,37.00
2023-02-13T12:57:14.088Z,34.30
2023-02-13T13:00:23.035Z,30.70
2023-02-13T13:03:44.537Z,27.50
2023-02-13T13:07:09.241Z,25.00
2023-02-13T13:10:33.570Z,22.30
2023-02-13T13:13:59.365Z,22.60
2023-02-13T13:17:23.561Z,18.40
2023-02-13T13:21:00.631Z,19.20
2023-02-13T13:24:09.934Z,17.90
2023-02-13T13:27:28.386Z,13.80
2023-02-13T13:30:37.509Z,13.70
2023-02-13T13:33:45.242Z,14.00
2023-02-13T13:37:00.949Z,14.00
2023-02-13T13:41:14.746Z,16.30
2023-02-13T13:44:23.927Z,8.70
2023-02-13T13:47:51.511Z,7.80
2023-02-13T13:50:56.418Z,9.10
2023-02-13T13:53:59.920Z,10.40
2023-02-13T13:57:03.895Z,10.10
2023-02-13T14:00:11.569Z,9.70
2023-02-13T14:03:33.636Z,10.50
2023-02-13T14:06:45.601Z,8.30
2023-02-13T14:09:49.214Z,8.80
2023-02-13T14:12:58.445Z,9.70
2023-02-13T14:16:02.848Z,10.10
2023-02-13T14:19:22.569Z,9.90
2023-02-13T14:22:33.113Z,8.50
2023-02-13T14:25:37.577Z,8.70
2023-02-13T14:28:54.827Z,9.90
2023-02-13T14:32:00.946Z,9.30
2023-02-13T14:35:19.149Z,13.10
2023-02-13T14:38:25.106Z,9.50
2023-02-13T14:41:49.300Z,9.80
2023-02-13T14:44:58.085Z,8.30
2023-02-13T14:48:13.797Z,11.80
2023-02-13T14:51:30.828Z,15.50
2023-02-13T14:54:43.710Z,12.60
2023-02-13T14:57:54.426Z,10.70
2023-02-13T15:01:11.614Z,11.70
2023-02-13T15:04:40.083Z,13.50
2023-02-13T15:07:57.801Z,26.60
2023-02-13T15:11:01.201Z,37.80
2023-02-13T15:14:30.298Z,16.80
2023-02-13T15:17:38.380Z,15.40
2023-02-13T15:20:43.780Z,19.30
2023-02-13T15:23:52.720Z,19.70
2023-02-13T15:27:04.189Z,18.30
2023-02-13T15:30:23.831Z,20.60
2023-02-13T15:33:32.762Z,17.40
2023-02-13T15:36:41.112Z,17.10
2023-02-13T15:39:44.354Z,17.50
2023-02-13T15:42:47.716Z,12.80
2023-02-13T15:45:51.089Z,13.70
2023-02-13T15:48:56.241Z,12.90
2023-02-13T15:52:21.782Z,17.30
2023-02-13T15:55:28.793Z,12.10
2023-02-13T15:58:34.580Z,14.80
2023-02-13T16:01:39.622Z,16.10
2023-02-13T16:04:43.864Z,19.50
2023-02-13T16:07:49.082Z,17.60
2023-02-13T16:11:10.468Z,18.40
2023-02-13T16:14:17.535Z,16.80
2023-02-13T16:17:33.435Z,13.50
2023-02-13T16:20:38.494Z,15.40
2023-02-13T16:23:45.340Z,15.00
2023-02-13T16:26:49.633Z,16.40
2023-02-13T16:29:59.952Z,17.70
2023-02-13T16:33:19.398Z,19.20
2023-02-13T16:36:30.251Z,16.20
2023-02-13T16:39:33.707Z,17.90
2023-02-13T16:42:36.841Z,16.50
2023-02-13T16:45:40.152Z,18.20
2023-02-13T16:49:00.989Z,19.50
2023-02-13T16:52:27.254Z,18.60
2023-02-13T16:55:31.789Z,17.40
2023-02-13T16:58:35.263Z,17.70
2023-02-13T17:01:41.200Z,16.10
2023-02-13T17:05:08.371Z,15.60
2023-02-13T17:08:11.983Z,18.60
2023-02-13T17:11:22.920Z,15.30
2023-02-13T17:14:26.583Z,14.90
2023-02-13T17:17:31.695Z,15.60
2023-02-13T17:20:40.584Z,16.70
2023-02-13T17:23:44.250Z,16.60
2023-02-13T17:26:47.442Z,16.80
2023-02-13T17:29:50.852Z,17.90
2023-02-13T17:32:59.136Z,20.10
2023-02-13T17:36:02.914Z,21.70
2023-02-13T17:39:06.108Z,23.90
2023-02-13T17:42:22.440Z,20.80
2023-02-13T17:45:29.032Z,18.20
2023-02-13T17:48:32.616Z,21.40
2023-02-13T17:51:39.670Z,20.90
2023-02-13T17:54:44.104Z,19.90
2023-02-13T17:57:48.641Z,15.70
2023-02-13T18:00:52.528Z,16.80
2023-02-13T18:03:55.752Z,23.40
2023-02-13T18:06:59.970Z,19.70
2023-02-13T18:10:03.349Z,19.10
2023-02-13T18:13:07.031Z,19.70
2023-02-13T18:16:11.033Z,15.60
2023-02-13T18:19:14.465Z,17.90
2023-02-13T18:22:17.822Z,20.10
2023-02-13T18:25:22.028Z,18.80
2023-02-13T18:28:25.446Z,19.60
2023-02-13T18:31:30.046Z,19.10
2023-02-13T18:34:33.322Z,20.70
2023-02-13T18:37:36.586Z,16.10
2023-02-13T18:40:39.780Z,16.80
2023-02-13T18:43:43.392Z,17.00
2023-02-13T18:46:46.739Z,17.50
2023-02-13T18:49:50.153Z,18.30
2023-02-13T18:52:53.514Z,19.00
2023-02-13T18:56:05.111Z,21.00
2023-02-13T18:59:08.557Z,22.70
2023-02-13T19:02:11.910Z,23.20
2023-02-13T19:05:15.349Z,24.30
2023-02-13T19:08:18.808Z,23.70
2023-02-13T19:11:24.262Z,23.30
2023-02-13T19:14:27.584Z,24.50
2023-02-13T19:17:30.822Z,24.00
2023-02-13T19:20:34.064Z,23.80
2023-02-13T19:23:37.822Z,23.40
2023-02-13T19:26:41.163Z,22.70
2023-02-13T19:29:44.473Z,21.00
2023-02-13T19:32:47.742Z,23.00
2023-02-13T19:35:58.932Z,24.90
2023-02-13T19:39:04.724Z,25.80
2023-02-13T19:42:08.051Z,32.20
2023-02-13T19:45:11.664Z,25.60
2023-02-13T19:48:15.218Z,27.90
2023-02-13T19:51:21.573Z,26.10
2023-02-13T19:54:24.781Z,25.20
2023-02-13T19:57:28.610Z,30.50
2023-02-13T20:00:32.130Z,29.20
2023-02-13T20:03:35.772Z,35.30
2023-02-13T20:06:39.440Z,33.00
2023-02-13T20:09:43.578Z,34.60
2023-02-13T20:12:52.087Z,38.20
2023-02-13T20:15:55.373Z,37.80
2023-02-13T20:19:05.673Z,36.20
2023-02-13T20:22:08.890Z,38.90
2023-02-13T20:25:12.145Z,41.40
2023-02-13T20:28:15.961Z,41.70
2023-02-13T20:31:21.478Z,40.10
2023-02-13T20:34:25.200Z,39.80
2023-02-13T20:37:29.385Z,36.00
2023-02-13T20:40:32.935Z,41.10
2023-02-13T20:43:36.322Z,42.30
2023-02-13T20:46:40.278Z,38.40
2023-02-13T20:50:10.853Z,38.50
2023-02-13T20:53:14.250Z,46.50
2023-02-13T20:56:21.458Z,45.50
2023-02-13T20:59:25.698Z,43.40
2023-02-13T21:02:29.100Z,42.60
2023-02-13T21:05:32.817Z,37.60
2023-02-13T21:08:37.201Z,37.70
2023-02-13T21:11:43.243Z,46.20
2023-02-13T21:14:46.527Z,50.60
2023-02-13T21:17:49.860Z,49.00
2023-02-13T21:20:53.266Z,50.90
2023-02-13T21:23:58.527Z,60.40
2023-02-13T21:27:01.948Z,68.00
2023-02-13T21:30:06.112Z,57.10
2023-02-13T21:33:09.562Z,52.90
2023-02-13T21:36:13.332Z,53.60
2023-02-13T21:39:16.770Z,57.90
2023-02-13T21:42:20.232Z,53.90
2023-02-13T21:45:23.646Z,54.40
2023-02-13T21:48:28.386Z,55.90
2023-02-13T21:51:33.559Z,58.10
2023-02-13T21:54:36.866Z,61.30
2023-02-13T21:57:40.272Z,56.60
2023-02-13T22:00:43.642Z,56.00
2023-02-13T22:03:47.643Z,56.50
2023-02-13T22:06:52.533Z,55.20
2023-02-13T22:09:55.899Z,48.30
2023-02-13T22:12:59.198Z,48.60
2023-02-13T22:16:15.498Z,50.50
2023-02-13T22:19:19.582Z,52.80
2023-02-13T22:22:22.866Z,50.30
2023-02-13T22:25:26.130Z,51.00
2023-02-13T22:28:30.274Z,58.50
2023-02-13T22:31:34.887Z,62.20
2023-02-13T22:34:38.265Z,59.70
2023-02-13T22:37:41.529Z,51.60
2023-02-13T22:40:44.888Z,48.10
2023-02-13T22:43:48.659Z,47.10
2023-02-13T22:46:51.996Z,48.50
2023-02-13T22:49:55.275Z,48.30
2023-02-13T22:52:59.064Z,44.80
2023-02-13T22:56:03.596Z,42.90
2023-02-13T22:59:07.065Z,41.00
2023-02-13T23:02:10.492Z,42.00
2023-02-13T23:05:13.774Z,38.10
2023-02-13T23:08:17.872Z,38.90
2023-02-13T23:11:43.782Z,35.60
2023-02-13T23:14:47.000Z,39.50
2023-02-13T23:18:08.777Z,39.70
2023-02-13T23:21:12.115Z,40.50
2023-02-13T23:24:15.471Z,36.60
2023-02-13T23:27:18.747Z,33.60
2023-02-13T23:30:22.697Z,36.90
2023-02-13T23:33:25.958Z,30.30
2023-02-13T23:36:29.286Z,36.30
2023-02-13T23:39:32.505Z,30.40
2023-02-13T23:42:35.898Z,26.70
2023-02-13T23:45:39.175Z,30.00
2023-02-13T23:48:42.548Z,27.20
2023-02-13T23:51:45.789Z,30.30
2023-02-13T23:54:49.092Z,31.70
2023-02-13T23:57:52.343Z,31.10
